sensor_id;sensor_type;location;lat;lon;timestamp;temperature;humidity
42037;DHT22;75222;52.004;5.908;2024-03-23T00:53:44;9.80;91.00
42037;DHT22;75222;52.004;5.908;2024-03-23T00:56:09;9.80;91.10
42037;DHT22;75222;52.004;5.908;2024-03-23T00:58:35;9.80;91.10
42037;DHT22;75222;52.004;5.908;2024-03-23T01:01:01;9.80;91.10
42037;DHT22;75222;52.004;5.908;2024-03-23T01:03:29;9.80;91.10
42037;DHT22;75222;52.004;5.908;2024-03-23T01:05:54;9.80;91.10
42037;DHT22;75222;52.004;5.908;2024-03-23T01:08:23;9.70;91.10
42037;DHT22;75222;52.004;5.908;2024-03-23T01:10:59;9.70;91.10
42037;DHT22;75222;52.004;5.908;2024-03-23T01:13:26;9.70;91.20
42037;DHT22;75222;52.004;5.908;2024-03-23T01:15:52;9.60;91.20
42037;DHT22;75222;52.004;5.908;2024-03-23T01:18:19;9.60;91.20
42037;DHT22;75222;52.004;5.908;2024-03-23T01:20:45;9.60;91.20
42037;DHT22;75222;52.004;5.908;2024-03-23T01:23:11;9.60;91.20
42037;DHT22;75222;52.004;5.908;2024-03-23T01:25:37;9.70;91.20
42037;DHT22;75222;52.004;5.908;2024-03-23T01:28:03;9.70;91.20
42037;DHT22;75222;52.004;5.908;2024-03-23T01:30:28;9.60;91.20
42037;DHT22;75222;52.004;5.908;2024-03-23T01:32:54;9.60;91.20
42037;DHT22;75222;52.004;5.908;2024-03-23T01:35:20;9.60;91.20
42037;DHT22;75222;52.004;5.908;2024-03-23T01:37:46;9.60;91.30
42037;DHT22;75222;52.004;5.908;2024-03-23T01:40:12;9.60;91.30
42037;DHT22;75222;52.004;5.908;2024-03-23T01:42:39;9.60;91.30
42037;DHT22;75222;52.004;5.908;2024-03-23T01:45:08;9.50;91.30
42037;DHT22;75222;52.004;5.908;2024-03-23T01:47:34;9.50;91.40
42037;DHT22;75222;52.004;5.908;2024-03-23T01:50:00;9.50;91.40
42037;DHT22;75222;52.004;5.908;2024-03-23T01:52:26;9.50;91.40
42037;DHT22;75222;52.004;5.908;2024-03-23T01:54:53;9.50;91.40
42037;DHT22;75222;52.004;5.908;2024-03-23T01:57:19;9.50;91.40
42037;DHT22;75222;52.004;5.908;2024-03-23T01:59:46;9.50;91.40
42037;DHT22;75222;52.004;5.908;2024-03-23T02:02:12;9.50;91.40
42037;DHT22;75222;52.004;5.908;2024-03-23T02:04:38;9.50;91.40
42037;DHT22;75222;52.004;5.908;2024-03-23T02:07:04;9.50;91.40
42037;DHT22;75222;52.004;5.908;2024-03-23T02:09:31;9.60;91.40
42037;DHT22;75222;52.004;5.908;2024-03-23T02:11:58;9.60;91.40
42037;DHT22;75222;52.004;5.908;2024-03-23T02:14:23;9.60;91.40
42037;DHT22;75222;52.004;5.908;2024-03-23T02:16:49;9.60;91.30
42037;DHT22;75222;52.004;5.908;2024-03-23T02:19:15;9.60;91.30
42037;DHT22;75222;52.004;5.908;2024-03-23T02:21:40;9.60;91.30
42037;DHT22;75222;52.004;5.908;2024-03-23T02:24:06;9.60;91.30
42037;DHT22;75222;52.004;5.908;2024-03-23T02:26:32;9.50;91.40
42037;DHT22;75222;52.004;5.908;2024-03-23T02:28:57;9.60;91.40
42037;DHT22;75222;52.004;5.908;2024-03-23T02:31:23;9.50;91.40
42037;DHT22;75222;52.004;5.908;2024-03-23T02:33:48;9.50;91.30
42037;DHT22;75222;52.004;5.908;2024-03-23T02:36:14;9.50;91.40
42037;DHT22;75222;52.004;5.908;2024-03-23T02:38:39;9.50;91.40
42037;DHT22;75222;52.004;5.908;2024-03-23T02:41:05;9.50;91.40
42037;DHT22;75222;52.004;5.908;2024-03-23T02:43:31;9.40;91.40
42037;DHT22;75222;52.004;5.908;2024-03-23T02:45:57;9.40;91.40
42037;DHT22;75222;52.004;5.908;2024-03-23T02:48:23;9.30;91.40
42037;DHT22;75222;52.004;5.908;2024-03-23T02:50:49;9.30;91.50
42037;DHT22;75222;52.004;5.908;2024-03-23T02:53:14;9.30;91.50
42037;DHT22;75222;52.004;5.908;2024-03-23T02:55:40;9.20;91.50
42037;DHT22;75222;52.004;5.908;2024-03-23T02:58:05;9.20;91.60
42037;DHT22;75222;52.004;5.908;2024-03-23T03:00:31;9.10;91.70
42037;DHT22;75222;52.004;5.908;2024-03-23T03:02:56;9.10;91.70
42037;DHT22;75222;52.004;5.908;2024-03-23T03:05:22;9.10;91.70
42037;DHT22;75222;52.004;5.908;2024-03-23T03:07:48;9.10;91.70
42037;DHT22;75222;52.004;5.908;2024-03-23T03:10:14;9.00;91.70
42037;DHT22;75222;52.004;5.908;2024-03-23T03:12:39;9.00;91.70
42037;DHT22;75222;52.004;5.908;2024-03-23T03:15:06;9.00;91.70
42037;DHT22;75222;52.004;5.908;2024-03-23T03:17:33;9.00;91.70
42037;DHT22;75222;52.004;5.908;2024-03-23T03:19:58;8.90;91.70
42037;DHT22;75222;52.004;5.908;2024-03-23T03:22:25;8.90;91.70
42037;DHT22;75222;52.004;5.908;2024-03-23T03:24:50;8.90;91.80
42037;DHT22;75222;52.004;5.908;2024-03-23T03:27:16;8.80;91.80
42037;DHT22;75222;52.004;5.908;2024-03-23T03:29:41;8.80;91.80
42037;DHT22;75222;52.004;5.908;2024-03-23T03:32:07;8.80;91.80
42037;DHT22;75222;52.004;5.908;2024-03-23T03:34:33;8.70;91.80
42037;DHT22;75222;52.004;5.908;2024-03-23T03:36:58;8.70;91.90
42037;DHT22;75222;52.004;5.908;2024-03-23T03:39:25;8.70;91.90
42037;DHT22;75222;52.004;5.908;2024-03-23T03:41:50;8.60;91.80
42037;DHT22;75222;52.004;5.908;2024-03-23T03:44:16;8.60;91.90
42037;DHT22;75222;52.004;5.908;2024-03-23T03:46:42;8.60;91.90
42037;DHT22;75222;52.004;5.908;2024-03-23T03:49:08;8.60;91.90
42037;DHT22;75222;52.004;5.908;2024-03-23T03:51:34;8.50;91.90
42037;DHT22;75222;52.004;5.908;2024-03-23T03:54:00;8.50;91.90
42037;DHT22;75222;52.004;5.908;2024-03-23T03:56:25;8.50;91.90
42037;DHT22;75222;52.004;5.908;2024-03-23T03:58:51;8.50;91.90
42037;DHT22;75222;52.004;5.908;2024-03-23T04:01:16;8.50;91.90
42037;DHT22;75222;52.004;5.908;2024-03-23T04:03:43;8.50;91.90
42037;DHT22;75222;52.004;5.908;2024-03-23T04:06:09;8.40;91.90
42037;DHT22;75222;52.004;5.908;2024-03-23T04:08:35;8.40;92.00
42037;DHT22;75222;52.004;5.908;2024-03-23T04:11:01;8.40;92.00
42037;DHT22;75222;52.004;5.908;2024-03-23T04:13:27;8.40;92.00
42037;DHT22;75222;52.004;5.908;2024-03-23T04:15:56;8.30;92.00
42037;DHT22;75222;52.004;5.908;2024-03-23T04:18:22;8.40;92.00
42037;DHT22;75222;52.004;5.908;2024-03-23T04:20:49;8.30;92.00
42037;DHT22;75222;52.004;5.908;2024-03-23T04:23:14;8.30;92.00
42037;DHT22;75222;52.004;5.908;2024-03-23T04:25:40;8.30;91.90
42037;DHT22;75222;52.004;5.908;2024-03-23T04:28:06;8.30;91.90
42037;DHT22;75222;52.004;5.908;2024-03-23T04:30:32;8.20;91.90
42037;DHT22;75222;52.004;5.908;2024-03-23T04:32:57;8.20;91.90
42037;DHT22;75222;52.004;5.908;2024-03-23T04:35:26;8.20;92.00
42037;DHT22;75222;52.004;5.908;2024-03-23T04:37:53;8.20;92.00
42037;DHT22;75222;52.004;5.908;2024-03-23T04:40:18;8.10;92.00
42037;DHT22;75222;52.004;5.908;2024-03-23T04:42:44;8.10;92.00
42037;DHT22;75222;52.004;5.908;2024-03-23T04:45:10;8.10;92.00
42037;DHT22;75222;52.004;5.908;2024-03-23T04:47:37;8.00;92.00
42037;DHT22;75222;52.004;5.908;2024-03-23T04:50:03;8.00;92.00
42037;DHT22;75222;52.004;5.908;2024-03-23T04:52:29;8.00;92.00
42037;DHT22;75222;52.004;5.908;2024-03-23T04:54:55;8.00;92.10
42037;DHT22;75222;52.004;5.908;2024-03-23T04:57:21;8.00;92.00
42037;DHT22;75222;52.004;5.908;2024-03-23T04:59:46;8.00;92.00
42037;DHT22;75222;52.004;5.908;2024-03-23T05:02:13;7.90;92.00
42037;DHT22;75222;52.004;5.908;2024-03-23T05:04:38;7.90;92.00
42037;DHT22;75222;52.004;5.908;2024-03-23T05:07:05;7.90;92.00
42037;DHT22;75222;52.004;5.908;2024-03-23T05:09:31;7.90;92.00
42037;DHT22;75222;52.004;5.908;2024-03-23T05:12:01;7.80;92.00
42037;DHT22;75222;52.004;5.908;2024-03-23T05:14:26;7.80;92.00
42037;DHT22;75222;52.004;5.908;2024-03-23T05:16:52;7.80;92.00
42037;DHT22;75222;52.004;5.908;2024-03-23T05:19:18;7.80;92.00
42037;DHT22;75222;52.004;5.908;2024-03-23T05:21:44;7.80;92.00
42037;DHT22;75222;52.004;5.908;2024-03-23T05:24:10;7.80;92.00
42037;DHT22;75222;52.004;5.908;2024-03-23T05:26:35;7.80;91.90
42037;DHT22;75222;52.004;5.908;2024-03-23T05:29:02;7.80;91.90
42037;DHT22;75222;52.004;5.908;2024-03-23T05:31:29;7.80;91.90
42037;DHT22;75222;52.004;5.908;2024-03-23T05:33:55;7.80;91.80
42037;DHT22;75222;52.004;5.908;2024-03-23T05:36:21;7.80;91.80
42037;DHT22;75222;52.004;5.908;2024-03-23T05:38:47;7.80;91.80
42037;DHT22;75222;52.004;5.908;2024-03-23T05:41:13;7.80;91.80
42037;DHT22;75222;52.004;5.908;2024-03-23T05:43:38;7.80;91.70
42037;DHT22;75222;52.004;5.908;2024-03-23T05:46:04;7.80;91.70
42037;DHT22;75222;52.004;5.908;2024-03-23T05:48:34;7.80;91.60
42037;DHT22;75222;52.004;5.908;2024-03-23T05:51:00;7.80;91.60
42037;DHT22;75222;52.004;5.908;2024-03-23T05:53:25;7.70;91.60
42037;DHT22;75222;52.004;5.908;2024-03-23T05:55:51;7.80;91.60
42037;DHT22;75222;52.004;5.908;2024-03-23T05:58:25;7.80;91.60
42037;DHT22;75222;52.004;5.908;2024-03-23T06:01:00;7.80;91.60
42037;DHT22;75222;52.004;5.908;2024-03-23T06:03:27;7.80;91.60
42037;DHT22;75222;52.004;5.908;2024-03-23T06:05:52;7.80;91.70
42037;DHT22;75222;52.004;5.908;2024-03-23T06:08:18;7.80;91.70
42037;DHT22;75222;52.004;5.908;2024-03-23T06:10:45;7.90;91.90
42037;DHT22;75222;52.004;5.908;2024-03-23T06:13:11;8.00;92.00
42037;DHT22;75222;52.004;5.908;2024-03-23T06:15:37;8.30;92.20
42037;DHT22;75222;52.004;5.908;2024-03-23T06:18:03;8.90;91.80
42037;DHT22;75222;52.004;5.908;2024-03-23T06:20:30;9.90;90.20
42037;DHT22;75222;52.004;5.908;2024-03-23T06:22:56;10.60;87.00
42037;DHT22;75222;52.004;5.908;2024-03-23T06:25:21;10.40;85.40
42037;DHT22;75222;52.004;5.908;2024-03-23T06:27:47;10.00;85.60
42037;DHT22;75222;52.004;5.908;2024-03-23T06:30:12;9.70;86.30
42037;DHT22;75222;52.004;5.908;2024-03-23T06:32:38;9.60;87.20
42037;DHT22;75222;52.004;5.908;2024-03-23T06:35:04;9.50;87.80
42037;DHT22;75222;52.004;5.908;2024-03-23T06:37:34;9.40;87.80
42037;DHT22;75222;52.004;5.908;2024-03-23T06:40:00;9.30;88.30
42037;DHT22;75222;52.004;5.908;2024-03-23T06:42:25;9.30;88.50
42037;DHT22;75222;52.004;5.908;2024-03-23T06:44:51;9.30;89.40
42037;DHT22;75222;52.004;5.908;2024-03-23T06:47:17;9.30;88.70
42037;DHT22;75222;52.004;5.908;2024-03-23T06:49:42;9.40;89.30
42037;DHT22;75222;52.004;5.908;2024-03-23T06:52:08;9.60;88.60
42037;DHT22;75222;52.004;5.908;2024-03-23T06:54:34;9.70;88.10
42037;DHT22;75222;52.004;5.908;2024-03-23T06:56:59;9.70;87.70
42037;DHT22;75222;52.004;5.908;2024-03-23T06:59:25;9.50;87.50
42037;DHT22;75222;52.004;5.908;2024-03-23T07:01:51;9.30;87.60
42037;DHT22;75222;52.004;5.908;2024-03-23T07:04:16;9.20;88.10
42037;DHT22;75222;52.004;5.908;2024-03-23T07:06:45;9.20;88.50
42037;DHT22;75222;52.004;5.908;2024-03-23T07:09:11;9.30;88.40
42037;DHT22;75222;52.004;5.908;2024-03-23T07:11:37;9.40;88.00
42037;DHT22;75222;52.004;5.908;2024-03-23T07:14:03;9.30;87.70
42037;DHT22;75222;52.004;5.908;2024-03-23T07:16:29;9.30;87.80
42037;DHT22;75222;52.004;5.908;2024-03-23T07:18:54;9.30;88.10
42037;DHT22;75222;52.004;5.908;2024-03-23T07:21:21;9.20;87.90
42037;DHT22;75222;52.004;5.908;2024-03-23T07:23:46;9.30;88.00
42037;DHT22;75222;52.004;5.908;2024-03-23T07:26:12;9.40;87.80
42037;DHT22;75222;52.004;5.908;2024-03-23T07:28:37;9.40;87.60
42037;DHT22;75222;52.004;5.908;2024-03-23T07:31:07;9.50;87.50
42037;DHT22;75222;52.004;5.908;2024-03-23T07:33:36;9.60;87.50
42037;DHT22;75222;52.004;5.908;2024-03-23T07:36:02;9.60;87.10
42037;DHT22;75222;52.004;5.908;2024-03-23T07:38:29;9.80;87.10
42037;DHT22;75222;52.004;5.908;2024-03-23T07:41:12;10.00;86.90
42037;DHT22;75222;52.004;5.908;2024-03-23T07:43:39;10.10;86.40
42037;DHT22;75222;52.004;5.908;2024-03-23T07:46:05;10.10;86.10
42037;DHT22;75222;52.004;5.908;2024-03-23T07:48:31;10.00;86.00
42037;DHT22;75222;52.004;5.908;2024-03-23T07:51:01;10.10;86.20
42037;DHT22;75222;52.004;5.908;2024-03-23T07:53:31;10.10;86.00
42037;DHT22;75222;52.004;5.908;2024-03-23T07:56:08;10.10;86.00
42037;DHT22;75222;52.004;5.908;2024-03-23T07:58:34;10.00;85.80
42037;DHT22;75222;52.004;5.908;2024-03-23T08:01:13;10.00;85.30
42037;DHT22;75222;52.004;5.908;2024-03-23T08:03:43;9.90;85.80
42037;DHT22;75222;52.004;5.908;2024-03-23T08:08:35;9.90;86.00
42037;DHT22;75222;52.004;5.908;2024-03-23T08:11:01;9.90;86.10
42037;DHT22;75222;52.004;5.908;2024-03-23T08:13:26;9.80;86.10
42037;DHT22;75222;52.004;5.908;2024-03-23T08:15:56;9.90;86.20
42037;DHT22;75222;52.004;5.908;2024-03-23T08:18:21;9.90;86.00
42037;DHT22;75222;52.004;5.908;2024-03-23T08:20:47;9.90;86.20
42037;DHT22;75222;52.004;5.908;2024-03-23T08:23:13;9.90;85.90
42037;DHT22;75222;52.004;5.908;2024-03-23T08:25:39;9.90;85.70
42037;DHT22;75222;52.004;5.908;2024-03-23T08:28:05;9.90;85.70
42037;DHT22;75222;52.004;5.908;2024-03-23T08:30:30;10.00;85.80
42037;DHT22;75222;52.004;5.908;2024-03-23T08:32:56;10.10;85.40
42037;DHT22;75222;52.004;5.908;2024-03-23T08:35:22;10.00;85.30
42037;DHT22;75222;52.004;5.908;2024-03-23T08:37:47;10.00;85.50
42037;DHT22;75222;52.004;5.908;2024-03-23T08:40:13;10.00;85.20
42037;DHT22;75222;52.004;5.908;2024-03-23T08:42:39;9.90;85.00
42037;DHT22;75222;52.004;5.908;2024-03-23T08:45:04;9.90;85.30
42037;DHT22;75222;52.004;5.908;2024-03-23T08:47:34;9.90;85.30
42037;DHT22;75222;52.004;5.908;2024-03-23T08:50:00;9.90;85.10
42037;DHT22;75222;52.004;5.908;2024-03-23T08:52:25;9.80;85.00
42037;DHT22;75222;52.004;5.908;2024-03-23T08:54:53;9.90;85.10
42037;DHT22;75222;52.004;5.908;2024-03-23T08:57:19;9.90;84.90
42037;DHT22;75222;52.004;5.908;2024-03-23T08:59:44;9.90;84.60
42037;DHT22;75222;52.004;5.908;2024-03-23T09:02:10;9.80;84.70
42037;DHT22;75222;52.004;5.908;2024-03-23T09:04:35;9.60;84.80
42037;DHT22;75222;52.004;5.908;2024-03-23T09:07:01;9.40;85.00
42037;DHT22;75222;52.004;5.908;2024-03-23T09:09:26;9.10;85.20
42037;DHT22;75222;52.004;5.908;2024-03-23T09:11:52;8.90;85.60
42037;DHT22;75222;52.004;5.908;2024-03-23T09:14:18;8.90;85.90
42037;DHT22;75222;52.004;5.908;2024-03-23T09:16:44;8.80;86.10
42037;DHT22;75222;52.004;5.908;2024-03-23T09:19:10;8.80;86.30
42037;DHT22;75222;52.004;5.908;2024-03-23T09:21:35;8.80;86.10
42037;DHT22;75222;52.004;5.908;2024-03-23T09:24:01;8.80;86.20
42037;DHT22;75222;52.004;5.908;2024-03-23T09:26:26;8.80;86.10
42037;DHT22;75222;52.004;5.908;2024-03-23T09:28:52;8.80;86.10
42037;DHT22;75222;52.004;5.908;2024-03-23T09:31:19;8.70;85.80
42037;DHT22;75222;52.004;5.908;2024-03-23T09:33:45;8.70;85.90
42037;DHT22;75222;52.004;5.908;2024-03-23T09:36:10;8.80;85.80
42037;DHT22;75222;52.004;5.908;2024-03-23T09:38:36;8.90;85.70
42037;DHT22;75222;52.004;5.908;2024-03-23T09:41:07;9.00;85.60
42037;DHT22;75222;52.004;5.908;2024-03-23T09:43:33;9.20;85.50
42037;DHT22;75222;52.004;5.908;2024-03-23T09:45:59;9.30;85.10
42037;DHT22;75222;52.004;5.908;2024-03-23T09:48:25;9.40;85.00
42037;DHT22;75222;52.004;5.908;2024-03-23T09:50:51;9.50;84.80
42037;DHT22;75222;52.004;5.908;2024-03-23T09:53:16;9.60;84.60
42037;DHT22;75222;52.004;5.908;2024-03-23T09:55:43;9.70;84.50
42037;DHT22;75222;52.004;5.908;2024-03-23T09:58:13;9.80;84.30
42037;DHT22;75222;52.004;5.908;2024-03-23T10:00:38;10.10;84.00
42037;DHT22;75222;52.004;5.908;2024-03-23T10:03:04;10.20;82.70
42037;DHT22;75222;52.004;5.908;2024-03-23T10:05:32;10.30;82.20
42037;DHT22;75222;52.004;5.908;2024-03-23T10:10:41;10.30;81.50
42037;DHT22;75222;52.004;5.908;2024-03-23T10:13:06;10.20;81.70
42037;DHT22;75222;52.004;5.908;2024-03-23T10:15:35;9.90;80.30
42037;DHT22;75222;52.004;5.908;2024-03-23T10:18:21;9.70;81.50
42037;DHT22;75222;52.004;5.908;2024-03-23T10:21:00;9.50;81.80
42037;DHT22;75222;52.004;5.908;2024-03-23T10:23:35;9.30;82.20
42037;DHT22;75222;52.004;5.908;2024-03-23T10:26:22;9.30;82.70
42037;DHT22;75222;52.004;5.908;2024-03-23T10:31:25;9.40;83.10
42037;DHT22;75222;52.004;5.908;2024-03-23T10:33:50;9.30;82.90
42037;DHT22;75222;52.004;5.908;2024-03-23T10:36:19;9.30;83.00
42037;DHT22;75222;52.004;5.908;2024-03-23T10:38:46;9.10;82.30
42037;DHT22;75222;52.004;5.908;2024-03-23T10:41:12;8.80;82.50
42037;DHT22;75222;52.004;5.908;2024-03-23T10:43:38;8.60;83.20
42037;DHT22;75222;52.004;5.908;2024-03-23T10:46:05;8.50;83.40
42037;DHT22;75222;52.004;5.908;2024-03-23T10:48:33;8.40;83.90
42037;DHT22;75222;52.004;5.908;2024-03-23T10:50:59;8.40;84.10
42037;DHT22;75222;52.004;5.908;2024-03-23T10:53:26;8.40;84.10
42037;DHT22;75222;52.004;5.908;2024-03-23T10:55:53;8.60;84.10
42037;DHT22;75222;52.004;5.908;2024-03-23T10:58:24;8.80;84.00
42037;DHT22;75222;52.004;5.908;2024-03-23T11:00:52;8.90;83.80
42037;DHT22;75222;52.004;5.908;2024-03-23T11:03:36;9.10;82.70
42037;DHT22;75222;52.004;5.908;2024-03-23T11:06:06;9.20;82.60
42037;DHT22;75222;52.004;5.908;2024-03-23T11:08:36;9.40;81.80
42037;DHT22;75222;52.004;5.908;2024-03-23T11:11:18;9.60;81.50
42037;DHT22;75222;52.004;5.908;2024-03-23T11:13:49;9.70;81.20
42037;DHT22;75222;52.004;5.908;2024-03-23T11:16:15;9.90;80.80
42037;DHT22;75222;52.004;5.908;2024-03-23T11:18:42;10.00;80.40
42037;DHT22;75222;52.004;5.908;2024-03-23T11:21:09;10.30;79.80
42037;DHT22;75222;52.004;5.908;2024-03-23T11:23:34;10.50;79.30
42037;DHT22;75222;52.004;5.908;2024-03-23T11:26:00;10.60;78.10
42037;DHT22;75222;52.004;5.908;2024-03-23T11:28:26;10.70;77.60
42037;DHT22;75222;52.004;5.908;2024-03-23T11:30:52;10.70;76.50
42037;DHT22;75222;52.004;5.908;2024-03-23T11:33:17;10.40;76.80
42037;DHT22;75222;52.004;5.908;2024-03-23T11:35:43;10.20;77.70
42037;DHT22;75222;52.004;5.908;2024-03-23T11:38:10;10.10;78.20
42037;DHT22;75222;52.004;5.908;2024-03-23T11:40:44;10.00;78.50
42037;DHT22;75222;52.004;5.908;2024-03-23T11:43:13;10.00;78.60
42037;DHT22;75222;52.004;5.908;2024-03-23T11:45:46;9.90;78.50
42037;DHT22;75222;52.004;5.908;2024-03-23T11:48:18;9.80;78.60
42037;DHT22;75222;52.004;5.908;2024-03-23T11:50:44;9.90;78.90
42037;DHT22;75222;52.004;5.908;2024-03-23T11:53:14;10.10;78.90
42037;DHT22;75222;52.004;5.908;2024-03-23T11:58:13;10.70;78.10
42037;DHT22;75222;52.004;5.908;2024-03-23T12:00:39;10.90;77.60
42037;DHT22;75222;52.004;5.908;2024-03-23T12:03:06;10.90;77.20
42037;DHT22;75222;52.004;5.908;2024-03-23T12:05:32;10.90;77.00
42037;DHT22;75222;52.004;5.908;2024-03-23T12:08:18;10.80;77.20
42037;DHT22;75222;52.004;5.908;2024-03-23T12:10:51;10.70;77.20
42037;DHT22;75222;52.004;5.908;2024-03-23T12:13:21;10.50;77.00
42037;DHT22;75222;52.004;5.908;2024-03-23T12:15:49;10.30;77.70
42037;DHT22;75222;52.004;5.908;2024-03-23T12:18:15;10.10;77.90
42037;DHT22;75222;52.004;5.908;2024-03-23T12:20:41;9.90;77.60
42037;DHT22;75222;52.004;5.908;2024-03-23T12:23:15;9.80;77.80
42037;DHT22;75222;52.004;5.908;2024-03-23T12:25:41;9.80;78.10
42037;DHT22;75222;52.004;5.908;2024-03-23T12:28:07;9.80;78.30
42037;DHT22;75222;52.004;5.908;2024-03-23T12:30:38;9.70;77.80
42037;DHT22;75222;52.004;5.908;2024-03-23T12:33:04;9.80;77.90
42037;DHT22;75222;52.004;5.908;2024-03-23T12:35:30;9.90;77.70
42037;DHT22;75222;52.004;5.908;2024-03-23T12:37:56;10.00;77.50
42037;DHT22;75222;52.004;5.908;2024-03-23T12:40:22;10.20;77.50
42037;DHT22;75222;52.004;5.908;2024-03-23T12:42:47;10.30;76.90
42037;DHT22;75222;52.004;5.908;2024-03-23T12:45:13;10.30;77.00
42037;DHT22;75222;52.004;5.908;2024-03-23T12:47:39;10.40;77.10
42037;DHT22;75222;52.004;5.908;2024-03-23T12:50:04;10.40;76.40
42037;DHT22;75222;52.004;5.908;2024-03-23T12:52:31;10.40;76.70
42037;DHT22;75222;52.004;5.908;2024-03-23T12:54:57;10.40;76.00
42037;DHT22;75222;52.004;5.908;2024-03-23T12:57:24;10.40;75.80
42037;DHT22;75222;52.004;5.908;2024-03-23T12:59:52;10.40;75.80
42037;DHT22;75222;52.004;5.908;2024-03-23T13:02:21;10.30;75.70
42037;DHT22;75222;52.004;5.908;2024-03-23T13:04:51;10.30;75.30
42037;DHT22;75222;52.004;5.908;2024-03-23T13:07:18;10.40;75.30
42037;DHT22;75222;52.004;5.908;2024-03-23T13:09:44;10.60;74.70
42037;DHT22;75222;52.004;5.908;2024-03-23T13:12:09;10.80;74.60
42037;DHT22;75222;52.004;5.908;2024-03-23T13:14:35;11.00;74.40
42037;DHT22;75222;52.004;5.908;2024-03-23T13:17:01;11.10;74.10
42037;DHT22;75222;52.004;5.908;2024-03-23T13:19:28;11.10;74.20
42037;DHT22;75222;52.004;5.908;2024-03-23T13:21:59;11.00;74.00
42037;DHT22;75222;52.004;5.908;2024-03-23T13:24:25;10.90;74.10
42037;DHT22;75222;52.004;5.908;2024-03-23T13:26:52;10.80;74.10
42037;DHT22;75222;52.004;5.908;2024-03-23T13:29:18;10.50;74.20
42037;DHT22;75222;52.004;5.908;2024-03-23T13:31:45;10.30;75.00
42037;DHT22;75222;52.004;5.908;2024-03-23T13:34:10;10.30;75.40
42037;DHT22;75222;52.004;5.908;2024-03-23T13:36:36;10.20;75.30
42037;DHT22;75222;52.004;5.908;2024-03-23T13:39:03;10.20;75.50
42037;DHT22;75222;52.004;5.908;2024-03-23T13:44:03;10.20;75.50
42037;DHT22;75222;52.004;5.908;2024-03-23T13:46:29;10.40;75.40
42037;DHT22;75222;52.004;5.908;2024-03-23T13:48:54;10.50;74.90
42037;DHT22;75222;52.004;5.908;2024-03-23T13:51:23;10.50;74.80
42037;DHT22;75222;52.004;5.908;2024-03-23T13:53:50;10.50;74.40
42037;DHT22;75222;52.004;5.908;2024-03-23T13:56:15;10.50;74.10
42037;DHT22;75222;52.004;5.908;2024-03-23T13:58:41;10.60;73.90
42037;DHT22;75222;52.004;5.908;2024-03-23T14:01:11;10.70;73.70
42037;DHT22;75222;52.004;5.908;2024-03-23T14:03:36;10.60;73.50
42037;DHT22;75222;52.004;5.908;2024-03-23T14:06:02;10.60;73.60
42037;DHT22;75222;52.004;5.908;2024-03-23T14:08:28;10.40;73.10
42037;DHT22;75222;52.004;5.908;2024-03-23T14:10:57;10.40;73.30
42037;DHT22;75222;52.004;5.908;2024-03-23T14:13:22;10.30;73.50
42037;DHT22;75222;52.004;5.908;2024-03-23T14:15:55;10.20;73.40
42037;DHT22;75222;52.004;5.908;2024-03-23T14:18:21;9.90;72.80
42037;DHT22;75222;52.004;5.908;2024-03-23T14:20:48;9.80;73.30
42037;DHT22;75222;52.004;5.908;2024-03-23T14:23:14;10.00;73.90
42037;DHT22;75222;52.004;5.908;2024-03-23T14:25:39;10.20;73.90
42037;DHT22;75222;52.004;5.908;2024-03-23T14:28:05;10.40;73.80
42037;DHT22;75222;52.004;5.908;2024-03-23T14:30:31;10.50;73.50
42037;DHT22;75222;52.004;5.908;2024-03-23T14:32:57;10.50;73.50
42037;DHT22;75222;52.004;5.908;2024-03-23T14:35:22;10.50;73.10
42037;DHT22;75222;52.004;5.908;2024-03-23T14:37:49;10.40;73.40
42037;DHT22;75222;52.004;5.908;2024-03-23T14:40:14;10.20;73.70
42037;DHT22;75222;52.004;5.908;2024-03-23T14:42:40;9.90;72.40
42037;DHT22;75222;52.004;5.908;2024-03-23T14:45:07;9.70;73.10
42037;DHT22;75222;52.004;5.908;2024-03-23T14:47:33;9.60;73.70
42037;DHT22;75222;52.004;5.908;2024-03-23T14:49:58;9.60;74.10
42037;DHT22;75222;52.004;5.908;2024-03-23T14:52:24;9.70;74.40
42037;DHT22;75222;52.004;5.908;2024-03-23T14:54:50;9.90;74.30
42037;DHT22;75222;52.004;5.908;2024-03-23T14:57:15;9.90;74.00
42037;DHT22;75222;52.004;5.908;2024-03-23T14:59:41;9.90;73.80
42037;DHT22;75222;52.004;5.908;2024-03-23T15:02:07;9.90;73.50
42037;DHT22;75222;52.004;5.908;2024-03-23T15:04:33;9.90;73.50
42037;DHT22;75222;52.004;5.908;2024-03-23T15:07:00;10.00;73.80
42037;DHT22;75222;52.004;5.908;2024-03-23T15:09:25;10.10;73.70
42037;DHT22;75222;52.004;5.908;2024-03-23T15:11:51;10.10;73.70
42037;DHT22;75222;52.004;5.908;2024-03-23T15:14:16;10.20;73.50
42037;DHT22;75222;52.004;5.908;2024-03-23T15:16:42;10.30;73.60
42037;DHT22;75222;52.004;5.908;2024-03-23T15:19:08;10.40;73.10
42037;DHT22;75222;52.004;5.908;2024-03-23T15:21:34;10.40;72.80
42037;DHT22;75222;52.004;5.908;2024-03-23T15:23:59;10.50;72.70
42037;DHT22;75222;52.004;5.908;2024-03-23T15:26:25;10.50;72.50
42037;DHT22;75222;52.004;5.908;2024-03-23T15:28:50;10.50;72.70
42037;DHT22;75222;52.004;5.908;2024-03-23T15:31:22;10.50;72.80
42037;DHT22;75222;52.004;5.908;2024-03-23T15:33:48;10.50;72.70
42037;DHT22;75222;52.004;5.908;2024-03-23T15:36:13;10.50;72.90
42037;DHT22;75222;52.004;5.908;2024-03-23T15:38:39;10.50;73.20
42037;DHT22;75222;52.004;5.908;2024-03-23T15:41:04;10.60;72.90
42037;DHT22;75222;52.004;5.908;2024-03-23T15:43:30;10.70;72.90
42037;DHT22;75222;52.004;5.908;2024-03-23T15:46:00;10.70;72.70
42037;DHT22;75222;52.004;5.908;2024-03-23T15:48:27;10.70;72.80
42037;DHT22;75222;52.004;5.908;2024-03-23T15:50:53;10.80;72.30
42037;DHT22;75222;52.004;5.908;2024-03-23T15:53:20;10.70;72.20
42037;DHT22;75222;52.004;5.908;2024-03-23T15:55:52;10.70;72.50
42037;DHT22;75222;52.004;5.908;2024-03-23T15:58:18;10.70;72.60
42037;DHT22;75222;52.004;5.908;2024-03-23T16:00:44;10.70;72.10
42037;DHT22;75222;52.004;5.908;2024-03-23T16:03:09;10.50;71.70
42037;DHT22;75222;52.004;5.908;2024-03-23T16:05:35;10.40;71.70
42037;DHT22;75222;52.004;5.908;2024-03-23T16:08:00;10.30;71.80
42037;DHT22;75222;52.004;5.908;2024-03-23T16:10:26;10.20;71.50
42037;DHT22;75222;52.004;5.908;2024-03-23T16:12:51;10.00;71.50
42037;DHT22;75222;52.004;5.908;2024-03-23T16:15:17;10.10;71.90
42037;DHT22;75222;52.004;5.908;2024-03-23T16:17:42;10.00;72.00
42037;DHT22;75222;52.004;5.908;2024-03-23T16:20:08;10.00;71.80
42037;DHT22;75222;52.004;5.908;2024-03-23T16:22:34;9.90;72.00
42037;DHT22;75222;52.004;5.908;2024-03-23T16:25:00;9.80;71.90
42037;DHT22;75222;52.004;5.908;2024-03-23T16:27:25;9.80;72.20
42037;DHT22;75222;52.004;5.908;2024-03-23T16:29:51;9.80;72.40
42037;DHT22;75222;52.004;5.908;2024-03-23T16:32:16;9.80;72.40
42037;DHT22;75222;52.004;5.908;2024-03-23T16:34:42;9.80;72.50
42037;DHT22;75222;52.004;5.908;2024-03-23T16:37:08;9.60;71.90
42037;DHT22;75222;52.004;5.908;2024-03-23T16:39:36;9.60;72.30
42037;DHT22;75222;52.004;5.908;2024-03-23T16:42:01;9.60;72.20
42037;DHT22;75222;52.004;5.908;2024-03-23T16:44:29;9.50;72.60